Time;durP1;ratioP1;P1;durP2;ratioP2;P2;SDS_P1;SDS_P2;PMS_P1;PMS_P2;Temp;Humidity;BMP_temperature;BMP_pressure;BME280_temperature;BME280_humidity;BME280_pressure;Samples;Min_cycle;Max_cycle;Signal;HPM_P1;HPM_P2
2022/03/23 00:01:00;;;;;;;;;;;18.50;54.20;;;;;;5056189;28;1411;-69
2022/03/23 00:03:25;;;;;;;;;;;18.50;54.20;;;;;;5055025;28;1079;-69
2022/03/23 00:05:51;;;;;;;;;;;18.50;54.30;;;;;;5055881;28;1201;-69
2022/03/23 00:08:16;;;;;;;;;;;18.50;54.30;;;;;;5054594;28;1142;-69
2022/03/23 00:10:41;;;;;;;;;;;18.50;54.30;;;;;;5054759;28;1354;-69
2022/03/23 00:13:07;;;;;;;;;;;18.50;54.40;;;;;;5056021;28;1066;-69
2022/03/23 00:15:32;;;;;;;;;;;18.50;54.40;;;;;;5046387;28;1957;-69
2022/03/23 00:17:58;;;;;;;;;;;18.50;54.40;;;;;;5054624;28;1134;-69
2022/03/23 00:20:24;;;;;;;;;;;18.50;54.40;;;;;;5055904;28;1305;-69
2022/03/23 00:22:50;;;;;;;;;;;18.50;54.50;;;;;;5054577;28;1079;-69
2022/03/23 00:25:16;;;;;;;;;;;18.40;54.40;;;;;;5055769;28;1219;-69
2022/03/23 00:27:41;;;;;;;;;;;18.40;54.50;;;;;;5054671;28;1318;-69
2022/03/23 00:30:08;;;;;;;;;;;18.40;54.50;;;;;;5053059;28;1114;-69
2022/03/23 00:32:33;;;;;;;;;;;18.40;54.50;;;;;;5054527;28;1274;-69
2022/03/23 00:34:59;;;;;;;;;;;18.40;54.60;;;;;;5055496;28;1902;-69
2022/03/23 00:37:24;;;;;;;;;;;18.40;54.60;;;;;;5051682;28;1185;-69
2022/03/23 00:39:50;;;;;;;;;;;18.40;54.60;;;;;;5055840;28;1381;-69
2022/03/23 00:42:15;;;;;;;;;;;18.40;54.60;;;;;;5042460;28;1107;-69
2022/03/23 00:44:41;;;;;;;;;;;18.40;54.70;;;;;;5050992;28;1316;-69
2022/03/23 00:47:06;;;;;;;;;;;18.40;54.70;;;;;;5062116;28;1359;-69
2022/03/23 00:49:32;;;;;;;;;;;18.40;54.70;;;;;;5055456;28;1340;-69
2022/03/23 00:51:58;;;;;;;;;;;18.40;54.70;;;;;;5055124;28;1078;-68
2022/03/23 00:54:23;;;;;;;;;;;18.40;54.70;;;;;;5055313;28;1508;-69
2022/03/23 00:56:50;;;;;;;;;;;18.40;54.70;;;;;;5054985;28;1906;-69
2022/03/23 00:59:16;;;;;;;;;;;18.40;54.80;;;;;;5055202;28;1109;-69
2022/03/23 01:01:42;;;;;;;;;;;18.40;54.80;;;;;;5055154;28;1082;-69
2022/03/23 01:04:08;;;;;;;;;;;18.40;54.80;;;;;;5055188;28;1475;-69
2022/03/23 01:06:33;;;;;;;;;;;18.40;54.80;;;;;;5053321;28;1272;-69
2022/03/23 01:08:58;;;;;;;;;;;18.40;54.70;;;;;;5054763;28;1125;-69
2022/03/23 01:11:24;;;;;;;;;;;18.40;54.70;;;;;;5053744;28;1118;-69
2022/03/23 01:13:49;;;;;;;;;;;18.40;54.70;;;;;;5054892;28;1128;-69
2022/03/23 01:16:16;;;;;;;;;;;18.40;54.80;;;;;;5028045;28;1952;-69
2022/03/23 01:18:42;;;;;;;;;;;18.40;54.80;;;;;;5055280;28;1367;-69
2022/03/23 01:21:07;;;;;;;;;;;18.40;54.70;;;;;;5054636;28;1079;-69
2022/03/23 01:23:33;;;;;;;;;;;18.40;54.80;;;;;;5054995;28;1429;-69
2022/03/23 01:25:58;;;;;;;;;;;18.40;54.80;;;;;;5053426;28;1347;-69
2022/03/23 01:28:23;;;;;;;;;;;18.40;54.80;;;;;;5053473;28;1186;-69
2022/03/23 01:30:49;;;;;;;;;;;18.40;54.80;;;;;;5050028;28;1094;-69
2022/03/23 01:33:14;;;;;;;;;;;18.40;54.80;;;;;;5054569;28;1129;-69
2022/03/23 01:35:40;;;;;;;;;;;18.40;54.80;;;;;;5052610;28;1959;-68
2022/03/23 01:38:05;;;;;;;;;;;18.40;54.80;;;;;;5046472;28;1048;-70
2022/03/23 01:40:31;;;;;;;;;;;18.40;54.80;;;;;;5034709;28;1338;-69
2022/03/23 01:42:57;;;;;;;;;;;18.40;54.80;;;;;;5038302;28;1167;-69
2022/03/23 01:45:22;;;;;;;;;;;18.40;54.80;;;;;;5054653;28;1258;-69
2022/03/23 01:47:47;;;;;;;;;;;18.40;54.80;;;;;;5052772;28;1424;-69
2022/03/23 01:50:13;;;;;;;;;;;18.40;54.80;;;;;;5054136;28;1142;-69
2022/03/23 01:52:39;;;;;;;;;;;18.40;54.80;;;;;;5053081;28;1425;-69
2022/03/23 01:55:05;;;;;;;;;;;18.40;54.80;;;;;;5054096;28;1984;-69
2022/03/23 01:57:31;;;;;;;;;;;18.40;54.80;;;;;;5037156;28;1063;-69
2022/03/23 01:59:56;;;;;;;;;;;18.40;54.90;;;;;;5059292;28;1092;-69
2022/03/23 02:02:22;;;;;;;;;;;18.40;54.90;;;;;;5052787;28;1263;-69
2022/03/23 02:04:47;;;;;;;;;;;18.40;54.90;;;;;;5052515;28;1481;-69
2022/03/23 02:07:14;;;;;;;;;;;18.40;54.90;;;;;;5053538;28;1112;-69
2022/03/23 02:09:39;;;;;;;;;;;18.40;54.90;;;;;;5053998;28;1285;-69
2022/03/23 02:12:08;;;;;;;;;;;18.40;54.90;;;;;;5053695;28;1444;-69
2022/03/23 02:14:34;;;;;;;;;;;18.40;54.90;;;;;;5048838;28;1408;-69
2022/03/23 02:16:59;;;;;;;;;;;18.40;55.00;;;;;;5051458;28;2406;-69
2022/03/23 02:19:25;;;;;;;;;;;18.40;55.00;;;;;;5053642;28;1083;-69
2022/03/23 02:21:53;;;;;;;;;;;18.40;55.00;;;;;;5053578;28;1296;-69
2022/03/23 02:24:21;;;;;;;;;;;18.40;55.00;;;;;;5052475;28;1063;-69
2022/03/23 02:26:46;;;;;;;;;;;18.40;55.00;;;;;;5052098;28;1354;-69
2022/03/23 02:29:13;;;;;;;;;;;18.40;55.00;;;;;;5051808;28;1442;-69
2022/03/23 02:31:39;;;;;;;;;;;18.40;55.00;;;;;;5065455;28;1404;-69
2022/03/23 02:34:05;;;;;;;;;;;18.40;55.00;;;;;;5052034;28;1396;-69
2022/03/23 02:36:31;;;;;;;;;;;18.40;55.10;;;;;;5046559;28;1898;-69
2022/03/23 02:38:56;;;;;;;;;;;18.40;55.00;;;;;;5053407;28;1039;-69
2022/03/23 02:41:22;;;;;;;;;;;18.40;55.00;;;;;;5048785;28;1090;-69
2022/03/23 02:43:47;;;;;;;;;;;18.40;55.00;;;;;;5044315;28;1174;-69
2022/03/23 02:46:17;;;;;;;;;;;18.40;55.00;;;;;;5051679;28;1382;-69
2022/03/23 02:48:43;;;;;;;;;;;18.40;55.00;;;;;;5051663;28;1348;-69
2022/03/23 02:51:08;;;;;;;;;;;18.40;55.00;;;;;;5051905;28;1159;-69
2022/03/23 03:01:53;;;;;;;;;;;18.40;55.00;;;;;;5052071;28;1316;-69
2022/03/23 03:04:23;;;;;;;;;;;18.40;55.00;;;;;;5052736;28;1341;-69
2022/03/23 03:06:48;;;;;;;;;;;18.40;55.00;;;;;;5051687;28;1213;-69
2022/03/23 03:09:17;;;;;;;;;;;18.40;55.00;;;;;;5068233;28;1277;-69
2022/03/23 03:11:45;;;;;;;;;;;18.40;55.00;;;;;;5051293;28;1318;-69
2022/03/23 03:14:11;;;;;;;;;;;18.40;55.10;;;;;;5047566;28;1436;-69
2022/03/23 03:16:37;;;;;;;;;;;18.40;55.10;;;;;;5047930;28;1958;-69
2022/03/23 03:19:04;;;;;;;;;;;18.40;55.10;;;;;;5051569;28;1131;-69
2022/03/23 03:21:30;;;;;;;;;;;18.40;55.10;;;;;;5052760;28;1106;-69
2022/03/23 03:23:55;;;;;;;;;;;18.40;55.10;;;;;;5051513;28;1337;-69
2022/03/23 03:26:21;;;;;;;;;;;18.40;55.10;;;;;;5052370;28;1327;-69
2022/03/23 03:28:47;;;;;;;;;;;18.40;55.10;;;;;;5052701;28;1327;-70
2022/03/23 03:31:12;;;;;;;;;;;18.40;55.10;;;;;;5051977;28;1178;-70
2022/03/23 03:33:38;;;;;;;;;;;18.40;55.10;;;;;;5056836;28;1344;-70
2022/03/23 03:36:04;;;;;;;;;;;18.40;55.20;;;;;;5053063;28;1902;-70
2022/03/23 03:38:30;;;;;;;;;;;18.40;55.20;;;;;;5055440;28;1078;-70
2022/03/23 03:40:56;;;;;;;;;;;18.40;55.20;;;;;;5042697;28;1082;-70
2022/03/23 03:43:23;;;;;;;;;;;18.40;55.20;;;;;;5044162;28;1369;-71
2022/03/23 03:45:48;;;;;;;;;;;18.40;55.20;;;;;;5038498;28;1483;-70
2022/03/23 03:48:14;;;;;;;;;;;18.40;55.20;;;;;;5055091;28;1341;-70
2022/03/23 03:50:39;;;;;;;;;;;18.40;55.30;;;;;;5056533;28;1305;-70
2022/03/23 03:53:10;;;;;;;;;;;18.40;55.20;;;;;;5055096;28;1501;-70
2022/03/23 03:55:36;;;;;;;;;;;18.40;55.20;;;;;;5056131;28;1910;-70
2022/03/23 03:58:03;;;;;;;;;;;18.40;55.30;;;;;;5055091;28;1369;-70
2022/03/23 04:00:29;;;;;;;;;;;18.30;55.20;;;;;;5056375;28;1329;-70
2022/03/23 04:02:54;;;;;;;;;;;18.40;55.30;;;;;;5056245;28;1059;-70
2022/03/23 04:05:20;;;;;;;;;;;18.30;55.20;;;;;;5055042;28;1282;-70
2022/03/23 04:07:45;;;;;;;;;;;18.30;55.30;;;;;;5055829;28;1291;-70
2022/03/23 04:10:11;;;;;;;;;;;18.30;55.30;;;;;;5056102;28;1337;-71
2022/03/23 04:12:36;;;;;;;;;;;18.30;55.30;;;;;;5056132;28;1053;-70
2022/03/23 04:15:02;;;;;;;;;;;18.30;55.30;;;;;;5047023;28;1969;-70
2022/03/23 04:17:27;;;;;;;;;;;18.30;55.30;;;;;;5054633;28;1261;-70
2022/03/23 04:19:53;;;;;;;;;;;18.30;55.30;;;;;;5056077;28;1299;-70
2022/03/23 04:22:18;;;;;;;;;;;18.30;55.30;;;;;;5055591;28;1066;-70
2022/03/23 04:24:43;;;;;;;;;;;18.30;55.30;;;;;;5056003;28;1367;-69
2022/03/23 04:27:09;;;;;;;;;;;18.40;55.40;;;;;;5055695;28;1317;-70
2022/03/23 04:29:34;;;;;;;;;;;18.30;55.30;;;;;;5053063;28;1282;-70
2022/03/23 04:32:00;;;;;;;;;;;18.30;55.30;;;;;;5055669;28;1324;-68
2022/03/23 04:34:25;;;;;;;;;;;18.30;55.30;;;;;;5055660;28;1067;-70
2022/03/23 04:36:51;;;;;;;;;;;18.30;55.40;;;;;;5051537;28;1964;-70
2022/03/23 04:39:16;;;;;;;;;;;18.30;55.40;;;;;;5055416;28;1070;-70
2022/03/23 04:41:42;;;;;;;;;;;18.30;55.40;;;;;;5048019;28;1078;-70
2022/03/23 04:44:07;;;;;;;;;;;18.30;55.40;;;;;;5049373;28;1099;-70
2022/03/23 04:46:32;;;;;;;;;;;18.30;55.40;;;;;;5055159;28;1295;-70
2022/03/23 04:48:58;;;;;;;;;;;18.30;55.40;;;;;;5055406;28;1408;-70
2022/03/23 04:51:23;;;;;;;;;;;18.30;55.40;;;;;;5054061;28;1354;-70
2022/03/23 04:53:49;;;;;;;;;;;18.30;55.40;;;;;;5054017;28;1083;-69
2022/03/23 04:56:14;;;;;;;;;;;18.30;55.50;;;;;;5053740;28;1906;-70
2022/03/23 04:58:42;;;;;;;;;;;18.30;55.50;;;;;;5053890;28;1143;-70
2022/03/23 05:01:08;;;;;;;;;;;18.30;55.50;;;;;;5055500;28;1062;-70
2022/03/23 05:03:34;;;;;;;;;;;18.30;55.50;;;;;;5053824;28;1202;-70
2022/03/23 05:05:59;;;;;;;;;;;18.30;55.50;;;;;;5053558;28;1418;-69
2022/03/23 05:08:25;;;;;;;;;;;18.30;55.50;;;;;;5055039;28;1079;-70
2022/03/23 05:10:51;;;;;;;;;;;18.30;55.50;;;;;;5054994;28;1308;-70
2022/03/23 05:13:16;;;;;;;;;;;18.30;55.50;;;;;;5053785;28;1282;-70
2022/03/23 05:15:42;;;;;;;;;;;18.30;55.50;;;;;;5038604;28;2717;-67
2022/03/23 05:18:07;;;;;;;;;;;18.30;55.50;;;;;;5039510;28;1053;-69
2022/03/23 05:20:33;;;;;;;;;;;18.30;55.50;;;;;;5039498;28;1254;-69
2022/03/23 05:22:58;;;;;;;;;;;18.30;55.50;;;;;;5034943;28;870;-68
2022/03/23 05:25:24;;;;;;;;;;;18.30;55.40;;;;;;5034923;28;1322;-69
2022/03/23 05:27:49;;;;;;;;;;;18.40;55.40;;;;;;5050024;28;1072;-68
2022/03/23 05:30:14;;;;;;;;;;;18.40;55.40;;;;;;5050233;28;1142;-69
2022/03/23 05:32:40;;;;;;;;;;;18.50;55.30;;;;;;5049971;28;962;-69
2022/03/23 05:35:06;;;;;;;;;;;18.50;55.20;;;;;;5049818;28;1906;-69
2022/03/23 05:37:31;;;;;;;;;;;18.50;55.10;;;;;;5049885;28;1142;-69
2022/03/23 05:39:57;;;;;;;;;;;18.60;55.00;;;;;;5034795;28;887;-68
2022/03/23 05:42:22;;;;;;;;;;;18.60;54.90;;;;;;5049842;28;1131;-68
2022/03/23 05:44:48;;;;;;;;;;;18.60;54.70;;;;;;5049963;28;1273;-69
2022/03/23 05:47:13;;;;;;;;;;;18.70;54.70;;;;;;5033150;28;867;-69
2022/03/23 05:49:39;;;;;;;;;;;18.80;54.60;;;;;;5049902;28;820;-68
2022/03/23 05:52:04;;;;;;;;;;;18.80;54.50;;;;;;5033537;28;1073;-69
2022/03/23 05:54:30;;;;;;;;;;;18.80;54.40;;;;;;5049875;28;859;-69
2022/03/23 05:56:56;;;;;;;;;;;18.80;54.30;;;;;;5049393;28;1910;-68
2022/03/23 05:59:21;;;;;;;;;;;18.90;54.30;;;;;;5049615;28;1317;-68
2022/03/23 06:01:47;;;;;;;;;;;18.90;54.30;;;;;;5034190;28;780;-68
2022/03/23 06:04:12;;;;;;;;;;;18.90;54.20;;;;;;5034182;28;765;-70
2022/03/23 06:06:38;;;;;;;;;;;18.90;54.10;;;;;;5033684;28;1287;-69
2022/03/23 06:09:04;;;;;;;;;;;18.90;54.10;;;;;;5027633;28;1475;-70
2022/03/23 06:11:29;;;;;;;;;;;18.90;54.10;;;;;;5044072;28;1286;-69
2022/03/23 06:13:54;;;;;;;;;;;18.90;54.10;;;;;;5032739;28;891;-71
2022/03/23 06:16:20;;;;;;;;;;;18.90;54.10;;;;;;5032204;28;1965;-68
2022/03/23 06:18:48;;;;;;;;;;;19.00;54.10;;;;;;5033586;28;883;-68
2022/03/23 06:21:14;;;;;;;;;;;19.00;54.10;;;;;;5032887;28;804;-69
2022/03/23 06:23:39;;;;;;;;;;;19.00;54.10;;;;;;5033244;28;911;-69
2022/03/23 06:26:05;;;;;;;;;;;19.00;54.10;;;;;;5032357;28;1215;-69
2022/03/23 06:28:30;;;;;;;;;;;19.00;54.10;;;;;;5032611;28;858;-69
2022/03/23 06:30:56;;;;;;;;;;;19.00;54.10;;;;;;5032844;28;1162;-69
2022/03/23 06:33:21;;;;;;;;;;;19.00;54.10;;;;;;5032675;28;887;-69
2022/03/23 06:35:47;;;;;;;;;;;19.00;54.10;;;;;;5031991;28;1906;-70
2022/03/23 06:38:12;;;;;;;;;;;19.00;54.10;;;;;;5048000;28;820;-70
2022/03/23 06:40:38;;;;;;;;;;;19.00;54.10;;;;;;5031083;28;973;-68
2022/03/23 06:43:03;;;;;;;;;;;19.00;54.10;;;;;;5032582;28;1147;-70
2022/03/23 06:45:29;;;;;;;;;;;19.00;54.10;;;;;;5032139;28;1305;-67
2022/03/23 06:47:55;;;;;;;;;;;19.00;54.10;;;;;;5032400;28;965;-68
2022/03/23 06:50:20;;;;;;;;;;;19.00;54.10;;;;;;5047600;28;1006;-66
2022/03/23 06:52:46;;;;;;;;;;;18.90;54.10;;;;;;5048046;28;703;-68
2022/03/23 06:55:11;;;;;;;;;;;18.90;54.10;;;;;;5047723;28;1887;-68
2022/03/23 06:57:37;;;;;;;;;;;19.00;54.10;;;;;;5047700;28;791;-68
2022/03/23 07:00:12;;;;;;;;;;;19.00;54.10;;;;;;5032450;28;886;-69
2022/03/23 07:02:47;;;;;;;;;;;19.00;54.20;;;;;;5047759;28;925;-67
2022/03/23 07:05:13;;;;;;;;;;;19.00;54.10;;;;;;5031872;28;1622;-71
2022/03/23 07:07:38;;;;;;;;;;;19.00;54.20;;;;;;5033052;28;1049;-68
2022/03/23 07:10:04;;;;;;;;;;;19.00;52.90;;;;;;5048423;28;891;-69
2022/03/23 07:12:29;;;;;;;;;;;18.90;52.40;;;;;;5033578;28;839;-68
2022/03/23 07:14:55;;;;;;;;;;;18.90;52.10;;;;;;5031568;28;1206;-69
2022/03/23 07:17:20;;;;;;;;;;;18.90;52.60;;;;;;5032536;28;1926;-68
2022/03/23 07:19:46;;;;;;;;;;;18.90;51.80;;;;;;5032846;28;820;-69
2022/03/23 07:22:12;;;;;;;;;;;18.90;51.90;;;;;;5048424;28;796;-69
2022/03/23 07:24:37;;;;;;;;;;;18.90;51.90;;;;;;5033033;28;823;-68
2022/03/23 07:27:03;;;;;;;;;;;18.90;52.00;;;;;;5032678;28;1169;-69
2022/03/23 07:29:28;;;;;;;;;;;18.90;52.20;;;;;;5048138;28;1162;-69
2022/03/23 07:31:53;;;;;;;;;;;18.90;52.30;;;;;;5032747;28;878;-69
2022/03/23 07:34:19;;;;;;;;;;;18.90;52.40;;;;;;5032771;28;902;-69
2022/03/23 07:36:45;;;;;;;;;;;18.90;52.50;;;;;;5032412;28;1973;-68
2022/03/23 07:39:15;;;;;;;;;;;18.90;52.60;;;;;;5032817;28;891;-69
2022/03/23 07:41:40;;;;;;;;;;;18.90;52.70;;;;;;5032890;28;1119;-69
2022/03/23 07:44:06;;;;;;;;;;;18.90;52.80;;;;;;5032683;28;859;-69
2022/03/23 07:46:31;;;;;;;;;;;18.90;53.00;;;;;;5047653;28;1247;-69
2022/03/23 07:48:57;;;;;;;;;;;19.00;53.10;;;;;;5032500;28;1093;-69
2022/03/23 07:51:22;;;;;;;;;;;19.10;53.20;;;;;;5030678;28;1285;-69
2022/03/23 07:53:48;;;;;;;;;;;19.10;53.10;;;;;;5031125;28;1340;-69
2022/03/23 07:56:13;;;;;;;;;;;19.20;53.00;;;;;;5031467;28;1910;-68
2022/03/23 07:58:38;;;;;;;;;;;19.30;52.90;;;;;;5032181;28;1239;-67
2022/03/23 08:01:04;;;;;;;;;;;19.40;53.10;;;;;;5032050;28;1271;-68
2022/03/23 08:03:29;;;;;;;;;;;19.50;53.10;;;;;;5032386;28;1215;-68
2022/03/23 08:05:55;;;;;;;;;;;19.60;53.10;;;;;;5047306;28;1271;-68
2022/03/23 08:08:21;;;;;;;;;;;19.70;53.00;;;;;;5032114;28;1350;-68
2022/03/23 08:10:46;;;;;;;;;;;19.80;53.00;;;;;;5047704;28;1328;-69
2022/03/23 08:13:16;;;;;;;;;;;19.90;52.90;;;;;;5032451;28;804;-68
2022/03/23 08:15:42;;;;;;;;;;;20.00;52.80;;;;;;5047884;28;1898;-68
2022/03/23 08:18:07;;;;;;;;;;;20.10;52.70;;;;;;5036187;28;796;-68
2022/03/23 08:20:33;;;;;;;;;;;20.20;52.60;;;;;;5036201;28;918;-69
2022/03/23 08:23:05;;;;;;;;;;;20.20;52.50;;;;;;5051672;28;844;-69
2022/03/23 08:25:31;;;;;;;;;;;20.30;52.50;;;;;;5051112;28;1220;-69
2022/03/23 08:27:56;;;;;;;;;;;20.30;52.40;;;;;;5035992;28;773;-69
2022/03/23 08:30:22;;;;;;;;;;;20.40;52.40;;;;;;5035507;28;1099;-69
2022/03/23 08:32:47;;;;;;;;;;;20.40;52.40;;;;;;5049877;28;1382;-68
2022/03/23 08:35:13;;;;;;;;;;;20.40;52.80;;;;;;5050967;28;1966;-68
2022/03/23 08:37:38;;;;;;;;;;;20.50;53.10;;;;;;5051046;28;1545;-69
2022/03/23 08:40:04;;;;;;;;;;;20.50;52.90;;;;;;5035771;28;815;-68
2022/03/23 08:42:30;;;;;;;;;;;20.50;52.80;;;;;;5050989;28;1460;-68
2022/03/23 08:44:55;;;;;;;;;;;20.50;52.90;;;;;;5035627;28;1212;-68
2022/03/23 08:47:21;;;;;;;;;;;20.50;53.00;;;;;;5051054;28;852;-68
2022/03/23 08:49:47;;;;;;;;;;;20.50;53.10;;;;;;5035492;28;819;-68
2022/03/23 08:52:12;;;;;;;;;;;20.50;53.00;;;;;;5035529;28;839;-68
2022/03/23 08:54:38;;;;;;;;;;;20.50;53.00;;;;;;5035677;28;866;-69
2022/03/23 08:57:03;;;;;;;;;;;20.50;53.00;;;;;;5034907;28;1980;-68
2022/03/23 08:59:30;;;;;;;;;;;20.50;53.10;;;;;;5035216;28;1002;-68
2022/03/23 09:01:55;;;;;;;;;;;20.50;53.80;;;;;;5035289;28;827;-68
2022/03/23 09:04:21;;;;;;;;;;;20.50;53.40;;;;;;5035220;28;848;-67
2022/03/23 09:06:46;;;;;;;;;;;20.50;53.50;;;;;;5034647;28;1172;-69
2022/03/23 09:09:11;;;;;;;;;;;20.50;53.70;;;;;;5050540;28;1005;-68
2022/03/23 09:11:37;;;;;;;;;;;20.50;53.60;;;;;;5035007;28;867;-68
2022/03/23 09:14:02;;;;;;;;;;;20.50;54.30;;;;;;5046913;28;2289;-69
2022/03/23 09:16:28;;;;;;;;;;;20.40;53.70;;;;;;5034401;28;1903;-69
2022/03/23 09:18:54;;;;;;;;;;;20.40;53.80;;;;;;5035205;28;1624;-68
2022/03/23 09:21:20;;;;;;;;;;;20.40;54.00;;;;;;5050426;28;819;-68
2022/03/23 09:23:46;;;;;;;;;;;20.40;54.20;;;;;;5050305;28;812;-68
2022/03/23 09:26:11;;;;;;;;;;;20.30;54.20;;;;;;5034536;28;1197;-69
2022/03/23 09:28:37;;;;;;;;;;;20.30;54.20;;;;;;5033807;28;820;-69
2022/03/23 09:31:03;;;;;;;;;;;20.30;54.30;;;;;;5050158;28;1554;-68
2022/03/23 09:33:28;;;;;;;;;;;20.30;54.80;;;;;;5034867;28;958;-69
2022/03/23 09:35:54;;;;;;;;;;;20.30;55.00;;;;;;5034676;28;1961;-68
2022/03/23 09:38:19;;;;;;;;;;;20.30;55.00;;;;;;5050184;28;848;-68
2022/03/23 09:40:50;;;;;;;;;;;20.20;55.00;;;;;;5034591;28;878;-68
2022/03/23 09:43:15;;;;;;;;;;;20.20;55.10;;;;;;5034435;28;718;-68
2022/03/23 09:48:11;;;;;;;;;;;20.20;55.20;;;;;;5034651;28;1240;-68
2022/03/23 09:50:40;;;;;;;;;;;20.20;55.20;;;;;;5034460;28;839;-68
2022/03/23 09:53:06;;;;;;;;;;;20.20;55.30;;;;;;5049698;28;1244;-68
2022/03/23 09:55:31;;;;;;;;;;;20.10;55.40;;;;;;5049196;28;1906;-68
2022/03/23 09:57:57;;;;;;;;;;;20.20;55.50;;;;;;5049815;28;773;-68
2022/03/23 10:00:23;;;;;;;;;;;20.10;55.50;;;;;;5049734;28;993;-68
2022/03/23 10:02:48;;;;;;;;;;;20.10;55.70;;;;;;5034294;28;863;-68
2022/03/23 10:05:32;;;;;;;;;;;20.10;55.70;;;;;;5034188;28;1303;-68
2022/03/23 10:08:03;;;;;;;;;;;20.10;55.70;;;;;;5034473;28;848;-68
2022/03/23 10:10:38;;;;;;;;;;;20.10;55.90;;;;;;5049458;28;1116;-68
2022/03/23 10:13:20;;;;;;;;;;;20.00;55.90;;;;;;5034168;28;797;-68
2022/03/23 10:15:52;;;;;;;;;;;20.00;56.10;;;;;;5048942;28;1906;-68
2022/03/23 10:18:24;;;;;;;;;;;20.00;56.20;;;;;;5049315;28;1379;-68
2022/03/23 10:20:51;;;;;;;;;;;20.00;56.40;;;;;;5049189;28;986;-68
2022/03/23 10:23:22;;;;;;;;;;;20.00;56.30;;;;;;5033883;28;859;-68
2022/03/23 10:25:48;;;;;;;;;;;20.00;56.50;;;;;;5033393;28;1282;-68
2022/03/23 10:28:13;;;;;;;;;;;19.90;56.20;;;;;;5049131;28;1281;-67
2022/03/23 10:30:39;;;;;;;;;;;19.90;56.20;;;;;;5049007;28;1131;-67
2022/03/23 10:33:15;;;;;;;;;;;19.90;56.80;;;;;;5049046;28;889;-68
2022/03/23 10:35:40;;;;;;;;;;;19.90;56.30;;;;;;5048669;28;1959;-68
2022/03/23 10:38:12;;;;;;;;;;;19.90;56.40;;;;;;5033338;28;851;-68
2022/03/23 10:40:37;;;;;;;;;;;19.90;56.50;;;;;;5033664;28;783;-68
2022/03/23 10:43:03;;;;;;;;;;;19.90;56.50;;;;;;5033500;28;1179;-68
2022/03/23 10:45:31;;;;;;;;;;;19.80;56.50;;;;;;5033699;28;1289;-68
2022/03/23 10:48:06;;;;;;;;;;;19.80;56.60;;;;;;5048113;28;823;-68
2022/03/23 10:50:31;;;;;;;;;;;19.80;56.70;;;;;;5048657;28;831;-68
2022/03/23 10:52:58;;;;;;;;;;;19.80;56.70;;;;;;5033407;28;910;-68
2022/03/23 10:55:24;;;;;;;;;;;19.70;56.80;;;;;;5033124;28;1964;-68
2022/03/23 10:57:49;;;;;;;;;;;19.70;56.80;;;;;;5048757;28;860;-68
2022/03/23 11:00:18;;;;;;;;;;;19.70;56.80;;;;;;5033439;28;713;-68
2022/03/23 11:02:47;;;;;;;;;;;19.70;56.90;;;;;;5033299;28;894;-68
2022/03/23 11:05:28;;;;;;;;;;;19.70;57.00;;;;;;5048575;28;1295;-68
2022/03/23 11:08:03;;;;;;;;;;;19.70;57.10;;;;;;5033460;28;1037;-69
2022/03/23 11:16:06;;;;;;;;;;;19.70;57.30;;;;;;5045882;28;1910;-69
2022/03/23 11:18:32;;;;;;;;;;;19.60;57.30;;;;;;5048305;28;812;-68
2022/03/23 11:20:57;;;;;;;;;;;19.60;57.30;;;;;;5032995;28;807;-69
2022/03/23 11:23:26;;;;;;;;;;;19.60;57.40;;;;;;5032998;28;835;-69
2022/03/23 11:25:52;;;;;;;;;;;19.60;57.40;;;;;;5032817;28;1186;-68
2022/03/23 11:28:17;;;;;;;;;;;19.60;57.50;;;;;;5048457;28;978;-68
2022/03/23 11:30:43;;;;;;;;;;;19.60;57.60;;;;;;5032909;28;1522;-68
2022/03/23 11:33:13;;;;;;;;;;;19.60;57.60;;;;;;5033078;28;997;-68
2022/03/23 11:35:45;;;;;;;;;;;19.60;57.60;;;;;;5047817;28;1910;-68
2022/03/23 11:38:10;;;;;;;;;;;19.60;57.70;;;;;;5047641;28;949;-69
2022/03/23 11:40:36;;;;;;;;;;;19.60;57.70;;;;;;5048664;28;800;-69
2022/03/23 11:43:01;;;;;;;;;;;19.50;57.70;;;;;;5048341;28;1215;-69
2022/03/23 11:45:27;;;;;;;;;;;19.60;57.80;;;;;;5048245;28;1217;-69
2022/03/23 11:48:01;;;;;;;;;;;19.50;57.70;;;;;;5048125;28;1446;-69
2022/03/23 11:50:31;;;;;;;;;;;19.60;57.80;;;;;;5048865;28;826;-69
2022/03/23 11:52:56;;;;;;;;;;;19.50;57.80;;;;;;5052278;28;1116;-69
2022/03/23 11:55:37;;;;;;;;;;;19.50;57.80;;;;;;5036742;28;1898;-69
2022/03/23 11:58:16;;;;;;;;;;;19.50;57.90;;;;;;5036744;28;833;-69
2022/03/23 12:00:43;;;;;;;;;;;19.50;57.90;;;;;;5050782;28;828;-69
2022/03/23 12:03:08;;;;;;;;;;;19.50;57.90;;;;;;5052171;28;784;-69
2022/03/23 12:05:39;;;;;;;;;;;19.50;57.90;;;;;;5051811;28;1287;-69
2022/03/23 12:08:05;;;;;;;;;;;19.50;58.00;;;;;;5035738;28;1389;-69
2022/03/23 12:10:33;;;;;;;;;;;19.50;58.00;;;;;;5051848;28;746;-69
2022/03/23 12:13:17;;;;;;;;;;;19.50;58.00;;;;;;5035634;28;2264;-69
2022/03/23 12:15:56;;;;;;;;;;;19.50;58.20;;;;;;5035881;28;1903;-68
2022/03/23 12:18:40;;;;;;;;;;;19.40;58.20;;;;;;5051743;28;906;-70
2022/03/23 12:21:09;;;;;;;;;;;19.50;58.30;;;;;;5051588;28;871;-70
2022/03/23 12:23:36;;;;;;;;;;;19.40;58.20;;;;;;5038654;28;1943;-69
2022/03/23 12:26:04;;;;;;;;;;;19.40;58.20;;;;;;5033527;28;1294;-69
2022/03/23 12:28:35;;;;;;;;;;;19.50;58.20;;;;;;5033818;28;1174;-68
2022/03/23 12:31:07;;;;;;;;;;;19.50;58.30;;;;;;5035180;28;1484;-68
2022/03/23 12:33:32;;;;;;;;;;;19.40;58.20;;;;;;5045162;28;1762;-69
2022/03/23 12:35:58;;;;;;;;;;;19.50;58.40;;;;;;5049114;28;1918;-68
2022/03/23 12:38:26;;;;;;;;;;;19.50;58.40;;;;;;5050215;28;1729;-70
2022/03/23 12:40:51;;;;;;;;;;;19.40;58.30;;;;;;5035093;28;1406;-69
2022/03/23 12:43:36;;;;;;;;;;;19.40;58.30;;;;;;5049444;28;835;-69
2022/03/23 12:46:02;;;;;;;;;;;19.40;58.40;;;;;;5034489;28;1299;-68
2022/03/23 12:59:33;;;;;;;;;;;19.40;58.50;;;;;;5035730;28;709;-69
2022/03/23 13:02:17;;;;;;;;;;;19.30;58.60;;;;;;5034895;28;849;-69
2022/03/23 13:04:42;;;;;;;;;;;19.30;58.80;;;;;;5035320;28;962;-69
2022/03/23 13:07:26;;;;;;;;;;;19.30;58.20;;;;;;5035128;28;1206;-70
2022/03/23 13:09:52;;;;;;;;;;;19.30;57.50;;;;;;5035462;28;918;-68
2022/03/23 13:12:21;;;;;;;;;;;19.30;56.60;;;;;;5035341;28;1128;-69
2022/03/23 13:14:47;;;;;;;;;;;19.30;56.20;;;;;;5035224;28;1275;-69
2022/03/23 13:17:13;;;;;;;;;;;19.30;56.50;;;;;;5035018;28;1894;-69
2022/03/23 13:19:39;;;;;;;;;;;19.30;55.60;;;;;;5049458;28;1132;-69
2022/03/23 13:22:04;;;;;;;;;;;19.30;55.60;;;;;;5049890;28;1228;-69
2022/03/23 13:24:29;;;;;;;;;;;19.30;55.30;;;;;;5050197;28;1314;-69
2022/03/23 13:26:56;;;;;;;;;;;19.30;55.00;;;;;;5034733;28;1159;-69
2022/03/23 13:29:24;;;;;;;;;;;19.20;54.80;;;;;;5034864;28;1173;-70
2022/03/23 13:31:49;;;;;;;;;;;19.20;54.80;;;;;;5050053;28;824;-70
2022/03/23 13:34:15;;;;;;;;;;;19.20;55.20;;;;;;5034578;28;1057;-69
2022/03/23 13:36:42;;;;;;;;;;;19.10;54.60;;;;;;5034136;28;1898;-69
2022/03/23 13:39:12;;;;;;;;;;;19.10;54.50;;;;;;5050268;28;1053;-70
2022/03/23 13:44:54;;;;;;;;;;;19.10;54.30;;;;;;5033568;28;1102;-69
2022/03/23 13:47:07;;;;;;;;;;;19.10;54.10;;;;;;5046793;28;1304;-69
2022/03/23 13:49:33;;;;;;;;;;;19.00;52.90;;;;;;5034301;28;825;-69
2022/03/23 13:52:00;;;;;;;;;;;19.00;53.20;;;;;;5034452;28;926;-69
2022/03/23 13:54:25;;;;;;;;;;;19.00;53.50;;;;;;5034436;28;848;-69
2022/03/23 13:56:51;;;;;;;;;;;18.90;53.80;;;;;;5033941;28;1898;-69
2022/03/23 13:59:17;;;;;;;;;;;18.90;54.00;;;;;;5049447;28;843;-69
2022/03/23 14:01:43;;;;;;;;;;;18.90;54.10;;;;;;5046926;28;1815;-69
2022/03/23 14:04:08;;;;;;;;;;;18.90;54.30;;;;;;5043351;28;1862;-69
2022/03/23 14:06:41;;;;;;;;;;;18.90;54.50;;;;;;5033433;28;1291;-69
2022/03/23 14:09:07;;;;;;;;;;;18.90;54.50;;;;;;5044367;28;2166;-68
2022/03/23 14:14:40;;;;;;;;;;;18.80;54.70;;;;;;5036455;28;1162;-69
2022/03/23 14:17:08;;;;;;;;;;;18.80;54.90;;;;;;5033622;28;1906;-69
2022/03/23 14:19:35;;;;;;;;;;;18.80;54.90;;;;;;5033831;28;816;-69
2022/03/23 14:22:01;;;;;;;;;;;18.80;55.00;;;;;;5049238;28;718;-69
2022/03/23 14:24:30;;;;;;;;;;;18.80;55.10;;;;;;5048949;28;725;-69
2022/03/23 14:27:11;;;;;;;;;;;18.80;55.20;;;;;;5048258;28;1635;-70
2022/03/23 14:29:36;;;;;;;;;;;18.80;55.80;;;;;;5048919;28;1394;-70
2022/03/23 14:32:03;;;;;;;;;;;18.80;55.30;;;;;;5033663;28;1021;-71
2022/03/23 14:34:30;;;;;;;;;;;18.80;55.30;;;;;;5033482;28;819;-71
2022/03/23 14:37:22;;;;;;;;;;;18.80;55.50;;;;;;5039953;28;1980;-71
2022/03/23 14:39:48;;;;;;;;;;;18.80;55.50;;;;;;5024820;28;1318;-70
2022/03/23 14:42:14;;;;;;;;;;;18.70;55.50;;;;;;5033382;28;1139;-70
2022/03/23 14:44:40;;;;;;;;;;;18.70;55.60;;;;;;5048860;28;1062;-70
2022/03/23 14:47:09;;;;;;;;;;;18.70;55.60;;;;;;5048401;28;1168;-70
2022/03/23 14:49:36;;;;;;;;;;;18.70;55.70;;;;;;5033571;28;991;-71
2022/03/23 14:52:02;;;;;;;;;;;18.70;55.70;;;;;;5033454;28;823;-70
2022/03/23 14:54:27;;;;;;;;;;;18.70;55.80;;;;;;5048444;28;1219;-70
2022/03/23 14:56:53;;;;;;;;;;;18.70;55.80;;;;;;5033090;28;1953;-71
2022/03/23 14:59:19;;;;;;;;;;;18.70;55.80;;;;;;5033189;28;811;-70
2022/03/23 15:01:46;;;;;;;;;;;18.70;55.90;;;;;;5033245;28;835;-70
2022/03/23 15:04:12;;;;;;;;;;;18.70;55.90;;;;;;5033115;28;858;-68